Time;durP1;ratioP1;P1;durP2;ratioP2;P2;SDS_P1;SDS_P2;PMS_P1;PMS_P2;Temp;Humidity;BMP_temperature;BMP_pressure;BME280_temperature;BME280_humidity;BME280_pressure;Samples;Min_cycle;Max_cycle;Signal;HPM_P1;HPM_P2
2022/06/04 00:01:41;;;;;;;;;29.40;26.80;;;;;19.89;68.79;100832.97;4976244;28;45540;-56
2022/06/04 00:04:07;;;;;;;;;30.60;27.40;;;;;19.91;68.87;100833.53;4976656;28;45374;-57
2022/06/04 00:06:32;;;;;;;;;30.75;28.75;;;;;19.95;68.41;100841.38;4975882;28;45404;-50
2022/06/04 00:08:58;;;;;;;;;25.75;24.50;;;;;19.72;68.53;100824.00;4975508;28;45409;-53
2022/06/04 00:16:51;;;;;;;;;25.60;24.60;;;;;19.74;68.86;100838.50;4976495;28;45388;-56
2022/06/04 00:19:17;;;;;;;;;29.00;25.75;;;;;19.82;68.53;100834.34;4976336;28;45322;-56
2022/06/04 00:21:43;;;;;;;;;26.25;25.75;;;;;19.81;68.63;100830.72;4974851;28;46466;-56
2022/06/04 00:24:08;;;;;;;;;25.00;24.60;;;;;19.45;68.99;100783.22;4979984;28;45306;-57
2022/06/04 00:26:34;;;;;;;;;32.25;29.00;;;;;19.78;68.89;100836.81;4995669;28;45349;-52
2022/06/04 00:28:59;;;;;;;;;29.50;25.50;;;;;19.79;68.64;100841.28;4995937;28;45282;-50
2022/06/04 00:31:25;;;;;;;;;25.75;25.00;;;;;19.61;68.57;100811.97;4995725;28;45979;-55
2022/06/04 00:33:50;;;;;;;;;31.75;28.75;;;;;19.73;68.92;100845.16;4995646;28;45259;-53
2022/06/04 00:36:16;;;;;;;;;27.25;27.25;;;;;19.76;68.81;100852.97;4995827;28;45455;-52
2022/06/04 00:38:41;;;;;;;;;28.25;27.25;;;;;19.76;68.74;100844.63;4995430;28;45386;-54
2022/06/04 00:41:29;;;;;;;;;26.25;24.75;;;;;19.76;68.91;100839.06;4995475;28;45452;-55
2022/06/04 00:44:02;;;;;;;;;30.60;28.00;;;;;19.75;68.74;100834.59;5022516;28;45436;-54
2022/06/04 00:46:40;;;;;;;;;33.80;30.20;;;;;19.80;68.69;100834.59;5027395;28;45378;-53
2022/06/04 00:49:15;;;;;;;;;27.20;24.60;;;;;19.63;68.58;100799.47;4995717;28;45323;-54
2022/06/04 00:51:42;;;;;;;;;26.20;26.00;;;;;19.72;68.72;100816.50;4993779;28;45374;-56
2022/06/04 00:54:08;;;;;;;;;29.60;27.80;;;;;19.69;69.04;100807.84;5010350;28;45306;-58
2022/06/04 00:56:51;;;;;;;;;26.50;25.75;;;;;19.42;69.30;100781.00;4995610;28;45365;-55
2022/06/04 00:59:36;;;;;;;;;30.00;29.00;;;;;19.67;68.92;100804.47;5027500;28;45457;-56
2022/06/04 01:02:39;;;;;;;;;26.40;26.40;;;;;19.63;68.87;100810.59;4995190;28;46535;-54
2022/06/04 01:05:18;;;;;;;;;27.20;25.80;;;;;19.57;68.67;100791.34;4994569;28;45386;-54
2022/06/04 01:07:53;;;;;;;;;26.80;24.80;;;;;19.49;68.41;100782.41;5026916;28;45399;-53
2022/06/04 01:10:21;;;;;;;;;33.60;27.60;;;;;19.66;68.66;100816.72;4995403;28;45477;-52
2022/06/04 01:13:04;;;;;;;;;24.60;23.40;;;;;19.51;68.87;100787.72;4980312;28;45723;-54
2022/06/04 01:15:39;;;;;;;;;23.80;23.80;;;;;19.52;68.37;100771.88;4969478;28;45423;-56
2022/06/04 01:18:15;;;;;;;;;28.80;27.80;;;;;19.51;69.00;100782.16;4975862;28;45418;-54
2022/06/04 01:20:50;;;;;;;;;25.40;24.20;;;;;19.46;68.56;100770.97;4977856;28;45324;-53
2022/06/04 01:24:00;;;;;;;;;30.60;26.40;;;;;19.68;68.72;100801.44;4978206;28;45624;-56
2022/06/04 01:26:44;;;;;;;;;25.00;24.60;;;;;19.66;68.60;100777.75;4941670;28;45602;-56
2022/06/04 01:29:15;;;;;;;;;29.00;27.60;;;;;19.63;68.49;100765.22;4961404;28;45455;-55
2022/06/04 01:31:46;;;;;;;;;25.80;24.40;;;;;19.62;68.32;100763.53;4977488;28;45847;-56
2022/06/04 01:34:12;;;;;;;;;26.20;25.20;;;;;19.58;68.79;100768.81;4976730;28;45546;-53
2022/06/04 01:36:59;;;;;;;;;28.20;26.80;;;;;19.50;69.34;100783.25;4977352;28;45470;-52
2022/06/04 01:39:26;;;;;;;;;22.80;22.80;;;;;19.46;69.13;100773.75;4976830;28;45267;-53
2022/06/04 01:41:56;;;;;;;;;27.60;25.60;;;;;19.41;69.24;100762.63;4979011;28;45401;-53
2022/06/04 01:44:32;;;;;;;;;24.60;22.20;;;;;19.50;68.81;100761.00;4976735;28;46836;-54
2022/06/04 01:46:59;;;;;;;;;29.20;27.20;;;;;19.49;69.32;100771.28;4962727;28;45373;-56
2022/06/04 01:49:45;;;;;;;;;26.60;25.80;;;;;19.48;68.89;100764.03;4960804;28;45346;-55
2022/06/04 01:52:17;;;;;;;;;23.40;23.40;;;;;19.53;68.93;100771.56;4977381;28;45441;-55
2022/06/04 01:55:20;;;;;;;;;25.20;25.20;;;;;19.46;68.93;100759.84;4961153;28;45543;-54
2022/06/04 01:57:46;;;;;;;;;27.40;24.80;;;;;19.50;68.98;100770.19;4946942;28;45672;-53
2022/06/04 02:00:15;;;;;;;;;29.50;26.00;;;;;19.43;69.10;100761.22;4978575;28;45385;-53
2022/06/04 02:02:45;;;;;;;;;24.40;24.40;;;;;19.50;68.44;100750.72;4977138;28;45664;-56
2022/06/04 02:05:14;;;;;;;;;24.00;23.60;;;;;19.63;68.36;100771.63;4961035;28;46568;-55
2022/06/04 02:07:41;;;;;;;;;25.60;22.40;;;;;19.68;68.02;100768.00;4976766;28;45368;-55
2022/06/04 02:10:26;;;;;;;;;28.80;24.20;;;;;19.48;67.81;100724.25;4977195;28;45438;-57
2022/06/04 02:12:55;;;;;;;;;24.40;24.20;;;;;19.59;68.09;100761.31;4978396;28;45417;-56
2022/06/04 02:15:22;;;;;;;;;29.60;27.80;;;;;19.59;68.44;100772.44;4976604;28;45772;-52
2022/06/04 02:17:50;;;;;;;;;25.80;25.80;;;;;19.40;68.29;100747.03;4960793;28;45391;-53
2022/06/04 02:20:16;;;;;;;;;27.00;24.00;;;;;19.39;68.31;100746.19;4960669;28;45454;-51
2022/06/04 02:22:41;;;;;;;;;23.25;22.25;;;;;19.57;68.48;100772.72;4977976;28;45471;-51
2022/06/04 02:25:08;;;;;;;;;25.50;24.50;;;;;19.66;68.06;100774.97;4984254;28;46090;-54
2022/06/04 02:27:34;;;;;;;;;23.00;20.40;;;;;19.68;68.15;100765.22;5028630;28;45466;-52
2022/06/04 02:29:59;;;;;;;;;28.25;26.25;;;;;19.71;67.47;100763.84;5029529;28;45508;-55
2022/06/04 02:33:14;;;;;;;;;25.50;25.25;;;;;19.66;67.56;100756.31;5029435;28;45509;-58
2022/06/04 02:36:07;;;;;;;;;23.80;21.40;;;;;19.69;67.55;100768.88;4995080;28;46922;-54
2022/06/04 02:38:54;;;;;;;;;25.20;25.20;;;;;19.60;68.00;100757.41;4997310;28;45397;-53
2022/06/04 02:41:27;;;;;;;;;22.80;21.60;;;;;19.60;68.02;100752.69;4997447;28;45363;-53
2022/06/04 02:44:21;;;;;;;;;24.60;24.60;;;;;19.44;67.97;100725.91;5012559;28;45501;-53
2022/06/04 02:46:57;;;;;;;;;24.80;24.20;;;;;19.60;67.41;100755.47;4996800;28;45364;-55
2022/06/04 02:49:36;;;;;;;;;22.40;20.40;;;;;19.72;67.41;100765.53;4988232;28;45394;-54
2022/06/04 02:52:02;;;;;;;;;11.20;9.20;;;;;19.70;67.58;100763.00;4973537;28;45807;-54
2022/06/04 02:54:35;;;;;;;;;26.60;25.20;;;;;19.43;67.37;100719.47;4974861;28;45580;-53
2022/06/04 02:57:00;;;;;;;;;25.20;24.40;;;;;19.57;67.27;100727.31;4959825;28;45921;-57
2022/06/04 02:59:26;;;;;;;;;27.75;25.25;;;;;19.66;67.42;100741.56;4959787;28;45428;-53
2022/06/04 03:01:53;;;;;;;;;27.25;26.00;;;;;19.71;67.23;100755.50;4975824;28;45257;-51
2022/06/04 03:04:18;;;;;;;;;27.00;23.20;;;;;19.72;67.22;100746.03;4976140;28;45656;-52
2022/06/04 03:06:44;;;;;;;;;22.75;22.75;;;;;19.58;67.69;100740.16;4975587;28;45490;-56
2022/06/04 03:09:11;;;;;;;;;25.25;25.00;;;;;19.31;67.68;100705.00;4976928;28;45411;-56
2022/06/04 03:11:45;;;;;;;;;27.40;23.80;;;;;19.42;68.24;100730.91;4975819;28;45443;-55
2022/06/04 03:14:11;;;;;;;;;23.80;23.40;;;;;19.46;67.93;100734.81;4977008;28;45317;-52
2022/06/04 03:16:38;;;;;;;;;29.20;24.00;;;;;19.47;67.88;100736.47;4975781;28;46289;-54
2022/06/04 03:19:09;;;;;;;;;26.40;25.00;;;;;19.23;67.62;100690.47;4975266;28;45354;-52
2022/06/04 03:21:38;;;;;;;;;27.20;25.80;;;;;19.35;67.97;100698.59;4977110;28;45345;-54
2022/06/04 03:24:04;;;;;;;;;25.80;24.80;;;;;19.41;68.29;100710.59;4976649;28;45391;-53
2022/06/04 03:26:30;;;;;;;;;28.20;26.40;;;;;19.26;68.34;100680.75;4991757;28;46555;-56
2022/06/04 03:28:55;;;;;;;;;23.25;22.50;;;;;19.37;68.73;100706.66;4995118;28;45414;-52
2022/06/04 03:31:21;;;;;;;;;24.00;21.50;;;;;19.40;68.33;100714.47;4995409;28;45995;-57
2022/06/04 03:33:47;;;;;;;;;23.50;22.50;;;;;19.52;67.95;100724.53;4996614;28;45402;-57
2022/06/04 03:36:12;;;;;;;;;24.75;22.75;;;;;19.58;67.97;100723.47;4994787;28;46430;-51
2022/06/04 03:38:38;;;;;;;;;26.25;24.50;;;;;19.62;67.67;100719.00;4995105;28;45340;-53
2022/06/04 03:41:03;;;;;;;;;25.50;23.25;;;;;19.57;67.62;100722.59;4995570;28;45375;-58
2022/06/04 03:43:29;;;;;;;;;26.00;23.50;;;;;19.61;67.91;100720.13;4995518;28;45323;-51
2022/06/04 03:45:54;;;;;;;;;23.25;19.25;;;;;19.61;67.46;100695.91;4996318;28;45688;-52
2022/06/04 03:48:20;;;;;;;;;22.50;22.25;;;;;19.58;67.37;100695.63;4996291;28;45384;-53
2022/06/04 03:50:45;;;;;;;;;24.75;23.25;;;;;19.63;67.34;100702.03;5028391;28;45375;-54
2022/06/04 03:53:11;;;;;;;;;24.00;24.00;;;;;19.68;67.46;100723.47;4996498;28;45336;-58
2022/06/04 03:55:36;;;;;;;;;22.00;21.25;;;;;19.63;67.37;100727.09;5011181;28;47371;-54
2022/06/04 03:58:02;;;;;;;;;23.75;22.75;;;;;19.72;67.33;100737.69;4996239;28;45384;-55
2022/06/04 04:00:35;;;;;;;;;23.50;22.25;;;;;19.69;67.36;100732.66;4994844;28;45669;-53
2022/06/04 04:03:03;;;;;;;;;26.80;20.40;;;;;19.60;67.83;100740.72;4996139;28;45376;-54
2022/06/04 04:05:33;;;;;;;;;20.60;20.60;;;;;19.28;68.02;100714.72;4994573;28;46879;-52
2022/06/04 04:07:59;;;;;;;;;22.00;21.80;;;;;19.27;68.65;100728.88;4996248;28;45374;-56
2022/06/04 04:10:25;;;;;;;;;18.00;18.00;;;;;19.13;67.92;100706.28;4995952;28;45306;-57
2022/06/04 04:12:51;;;;;;;;;19.00;19.00;;;;;19.39;68.42;100765.69;4996555;28;45591;-53
2022/06/04 04:15:17;;;;;;;;;19.75;19.75;;;;;19.22;68.67;100743.63;4995537;28;46671;-52
2022/06/04 04:17:42;;;;;;;;;22.50;19.75;;;;;19.29;68.34;100768.41;4996048;28;45482;-53
2022/06/04 04:20:15;;;;;;;;;19.75;19.75;;;;;19.37;68.51;100765.94;4995798;28;45289;-57
2022/06/04 04:22:41;;;;;;;;;19.60;17.40;;;;;19.56;67.69;100789.69;5027519;28;45327;-60
2022/06/04 04:25:07;;;;;;;;;19.50;19.25;;;;;19.60;67.74;100804.72;4991822;28;46664;-57
2022/06/04 04:27:33;;;;;;;;;21.60;19.20;;;;;19.64;67.35;100828.16;4975990;28;45333;-52
2022/06/04 04:29:58;;;;;;;;;21.50;19.50;;;;;19.68;67.36;100828.44;4975156;28;45725;-53
2022/06/04 04:32:23;;;;;;;;;20.50;18.25;;;;;19.59;67.30;100822.56;4975984;28;45366;-56
2022/06/04 04:34:49;;;;;;;;;17.25;17.25;;;;;19.26;67.54;100777.31;4976125;28;46508;-56
2022/06/04 04:37:14;;;;;;;;;21.25;18.50;;;;;19.54;67.78;100834.50;4976142;28;45390;-55
2022/06/04 04:39:40;;;;;;;;;17.50;17.50;;;;;19.56;67.65;100837.00;4974158;28;45316;-54
2022/06/04 04:42:05;;;;;;;;;20.00;18.00;;;;;19.58;67.92;100835.63;4974885;28;45547;-56
2022/06/04 04:44:31;;;;;;;;;19.25;18.00;;;;;19.52;67.97;100845.06;4975464;28;46508;-54
2022/06/04 04:46:56;;;;;;;;;19.75;19.50;;;;;19.55;67.76;100858.44;4975927;28;45326;-56
2022/06/04 04:49:22;;;;;;;;;16.25;16.25;;;;;19.61;67.67;100862.94;4975786;28;45263;-55
2022/06/04 04:51:47;;;;;;;;;22.50;21.00;;;;;19.61;67.53;100848.16;4975870;28;45271;-56
2022/06/04 04:54:13;;;;;;;;;20.00;18.75;;;;;19.62;67.49;100836.75;4979169;28;46726;-51
2022/06/04 04:56:39;;;;;;;;;22.00;21.25;;;;;19.69;67.23;100842.06;4977652;28;45407;-52
2022/06/04 04:59:05;;;;;;;;;19.20;19.20;;;;;19.69;67.25;100838.47;4979628;28;45427;-51
2022/06/04 05:01:30;;;;;;;;;18.75;18.75;;;;;19.71;67.28;100830.66;4979222;28;45343;-57
2022/06/04 05:03:56;;;;;;;;;21.25;19.25;;;;;19.74;67.45;100830.16;4978811;28;46008;-53
2022/06/04 05:06:22;;;;;;;;;27.50;22.00;;;;;19.68;67.73;100825.66;4978947;28;45457;-54
2022/06/04 05:08:48;;;;;;;;;24.80;21.60;;;;;19.71;67.52;100833.47;4977772;28;45474;-54
2022/06/04 05:11:18;;;;;;;;;21.40;20.00;;;;;19.58;67.25;100799.44;4979062;28;45393;-56
2022/06/04 05:13:43;;;;;;;;;18.60;17.60;;;;;19.76;67.23;100811.22;4978347;28;45744;-56
2022/06/04 05:16:09;;;;;;;;;20.50;18.50;;;;;19.78;67.28;100822.91;4978415;28;45331;-53
2022/06/04 05:18:34;;;;;;;;;22.00;21.25;;;;;19.78;67.33;100825.69;4979008;28;45307;-53
2022/06/04 05:21:27;;;;;;;;;19.25;18.25;;;;;19.83;67.03;100827.66;4978636;28;45391;-55
2022/06/04 05:23:55;;;;;;;;;17.00;15.80;;;;;19.84;67.16;100841.31;4978003;28;46633;-54
2022/06/04 05:26:23;;;;;;;;;21.20;19.40;;;;;19.84;67.28;100804.28;4991957;28;45275;-57
2022/06/04 05:28:49;;;;;;;;;18.60;18.20;;;;;19.77;67.32;100785.03;4998211;28;45306;-55
2022/06/04 05:31:14;;;;;;;;;20.20;19.40;;;;;19.71;67.88;100795.31;5030104;28;45553;-55
2022/06/04 05:33:40;;;;;;;;;20.00;18.75;;;;;19.64;67.73;100791.97;4997891;28;45606;-57
2022/06/04 05:36:05;;;;;;;;;21.50;21.25;;;;;19.72;67.50;100779.44;4997839;28;45465;-54
2022/06/04 05:38:34;;;;;;;;;19.25;18.25;;;;;19.63;67.26;100740.16;4998292;28;45464;-53
2022/06/04 05:41:01;;;;;;;;;19.20;19.20;;;;;19.89;67.12;100771.72;4996903;28;45395;-49
2022/06/04 05:43:27;;;;;;;;;18.60;16.40;;;;;19.97;66.96;100780.66;4997828;28;45986;-52
2022/06/04 05:45:57;;;;;;;;;23.50;22.00;;;;;19.98;66.78;100785.13;4997801;28;45427;-54
2022/06/04 05:48:22;;;;;;;;;18.20;17.80;;;;;20.10;66.63;100796.84;4998149;28;45404;-57
2022/06/04 05:50:52;;;;;;;;;22.25;21.25;;;;;20.17;66.12;100785.47;4998087;28;45551;-53
2022/06/04 05:53:17;;;;;;;;;20.80;19.60;;;;;20.23;66.28;100791.88;4997723;28;46288;-56
2022/06/04 05:55:43;;;;;;;;;20.50;20.50;;;;;20.21;66.12;100811.63;4997733;28;45430;-53
2022/06/04 05:58:08;;;;;;;;;19.00;18.75;;;;;20.10;65.99;100793.22;4996555;28;45497;-51
2022/06/04 06:00:33;;;;;;;;;17.75;17.75;;;;;20.08;66.48;100815.81;4998209;28;45321;-51
2022/06/04 06:02:59;;;;;;;;;17.50;17.25;;;;;20.00;66.77;100821.88;4996932;28;46455;-53
2022/06/04 06:05:24;;;;;;;;;20.50;19.50;;;;;20.04;66.79;100848.94;4996684;28;45907;-56
2022/06/04 06:07:50;;;;;;;;;21.25;20.00;;;;;19.92;66.51;100846.34;4997797;28;45307;-56
2022/06/04 06:10:16;;;;;;;;;18.40;18.40;;;;;19.75;66.30;100862.44;4997901;28;45289;-51
2022/06/04 06:12:41;;;;;;;;;20.25;19.25;;;;;19.99;66.70;100871.22;4997612;28;46271;-53
2022/06/04 06:15:08;;;;;;;;;20.50;20.25;;;;;19.88;67.16;100839.66;4997333;28;45210;-55
2022/06/04 06:17:33;;;;;;;;;18.80;17.60;;;;;19.82;67.30;100851.88;4997820;28;45753;-55
2022/06/04 06:19:59;;;;;;;;;18.75;18.75;;;;;19.85;67.49;100870.00;4997777;28;45287;-57
2022/06/04 06:22:24;;;;;;;;;22.75;20.00;;;;;19.83;67.59;100897.25;4997284;28;46692;-58
2022/06/04 06:24:49;;;;;;;;;20.50;19.25;;;;;19.68;67.88;100914.75;4996778;28;45355;-53
2022/06/04 06:27:15;;;;;;;;;19.25;18.25;;;;;19.81;67.58;100930.97;4977731;28;45323;-51
2022/06/04 06:29:40;;;;;;;;;20.75;17.00;;;;;19.77;67.71;100940.97;4976924;28;45557;-57
2022/06/04 06:32:06;;;;;;;;;19.25;18.50;;;;;19.75;67.82;100913.38;4976906;28;45804;-55
2022/06/04 06:34:32;;;;;;;;;20.20;20.20;;;;;19.88;67.46;100916.78;4977808;28;45434;-56
2022/06/04 06:36:57;;;;;;;;;21.00;19.50;;;;;19.76;67.49;100887.22;4976205;28;45370;-56
2022/06/04 06:39:23;;;;;;;;;20.00;19.00;;;;;19.91;67.53;100907.91;4977704;28;45434;-51
2022/06/04 06:41:48;;;;;;;;;21.75;21.25;;;;;19.95;67.74;100920.19;4977490;28;45522;-58
2022/06/04 06:44:14;;;;;;;;;18.25;18.25;;;;;19.96;67.47;100926.63;4977625;28;45357;-54
2022/06/04 06:46:44;;;;;;;;;22.00;22.00;;;;;20.00;67.37;100933.31;4977597;28;45355;-53
2022/06/04 06:49:17;;;;;;;;;22.60;22.00;;;;;19.99;67.72;100940.00;4978152;28;45326;-53
2022/06/04 06:51:51;;;;;;;;;20.60;19.60;;;;;19.96;67.56;100929.41;4977572;28;45749;-54
2022/06/04 06:54:17;;;;;;;;;25.00;23.00;;;;;19.96;67.77;100907.13;4976320;28;45407;-55
2022/06/04 06:56:44;;;;;;;;;26.00;26.00;;;;;19.92;67.54;100902.03;4947187;28;46426;-55
2022/06/04 06:59:09;;;;;;;;;21.80;21.00;;;;;19.92;67.98;100902.03;4976692;28;45409;-54
2022/06/04 07:01:35;;;;;;;;;27.00;26.50;;;;;19.73;68.10;100871.06;4976001;28;46635;-55
2022/06/04 07:04:02;;;;;;;;;22.00;21.00;;;;;19.94;67.83;100882.28;4959793;28;45480;-56
2022/06/04 07:06:34;;;;;;;;;25.80;23.00;;;;;19.98;68.02;100872.31;4976145;28;45408;-56
2022/06/04 07:09:00;;;;;;;;;22.20;21.80;;;;;20.00;68.21;100874.81;4977608;28;45451;-55
2022/06/04 07:11:26;;;;;;;;;24.80;23.60;;;;;19.86;68.41;100866.94;4975840;28;45681;-56
2022/06/04 07:13:53;;;;;;;;;23.00;21.00;;;;;19.84;68.50;100855.22;4975788;28;45408;-56
2022/06/04 07:16:19;;;;;;;;;24.00;22.25;;;;;19.97;68.54;100867.00;4975962;28;45342;-56
2022/06/04 07:18:44;;;;;;;;;18.20;18.20;;;;;19.97;68.15;100853.09;4943460;28;45598;-53
2022/06/04 07:21:10;;;;;;;;;22.25;21.00;;;;;19.98;68.70;100866.75;4976939;28;45388;-58
2022/06/04 07:23:36;;;;;;;;;24.00;21.50;;;;;19.94;68.97;100870.31;4959679;28;45901;-56
2022/06/04 07:26:03;;;;;;;;;23.00;22.60;;;;;19.96;68.69;100871.72;4983754;28;45563;-54
2022/06/04 07:28:28;;;;;;;;;26.00;25.00;;;;;20.07;69.18;100891.28;5011451;28;45648;-57
2022/06/04 07:30:54;;;;;;;;;25.00;22.50;;;;;20.08;68.66;100893.81;4979107;28;47492;-53
2022/06/04 07:33:21;;;;;;;;;22.25;22.00;;;;;20.14;68.58;100903.00;4978529;28;45269;-52
2022/06/04 07:35:50;;;;;;;;;22.80;22.80;;;;;20.12;68.58;100906.06;4996440;28;45318;-55
2022/06/04 07:38:16;;;;;;;;;23.60;21.60;;;;;20.12;68.64;100894.09;4996801;28;45527;-57
2022/06/04 07:40:41;;;;;;;;;26.50;24.50;;;;;20.09;68.39;100889.06;4961619;28;46275;-55
2022/06/04 07:43:07;;;;;;;;;25.00;22.75;;;;;20.25;68.44;100929.81;4962591;28;45242;-50
2022/06/04 07:45:34;;;;;;;;;24.25;23.25;;;;;20.14;68.15;100906.66;4996320;28;45393;-58
2022/06/04 07:48:00;;;;;;;;;23.80;21.20;;;;;20.22;68.22;100905.25;4996563;28;45440;-57
2022/06/04 07:50:26;;;;;;;;;25.80;23.60;;;;;20.09;67.96;100875.13;4962187;28;48313;-56
2022/06/04 07:52:51;;;;;;;;;18.75;18.75;;;;;20.19;68.60;100905.81;4995747;28;45355;-58
2022/06/04 07:55:17;;;;;;;;;24.00;23.00;;;;;20.15;68.90;100913.03;4995074;28;45459;-55
2022/06/04 07:57:42;;;;;;;;;24.75;23.75;;;;;20.29;68.80;100905.84;4996102;28;45450;-54
2022/06/04 08:00:09;;;;;;;;;20.75;20.50;;;;;20.32;68.13;100910.03;5005548;28;46796;-55
2022/06/04 08:02:34;;;;;;;;;23.00;20.80;;;;;20.38;68.14;100906.16;4959157;28;45954;-56
2022/06/04 08:05:00;;;;;;;;;25.50;25.00;;;;;20.46;68.08;100893.63;4956779;28;45489;-52
2022/06/04 08:07:25;;;;;;;;;33.50;29.25;;;;;20.51;68.06;100888.09;4957035;28;45497;-54
2022/06/04 08:09:51;;;;;;;;;27.50;27.50;;;;;20.55;68.78;100886.41;4956631;28;46743;-55
2022/06/04 08:12:17;;;;;;;;;30.50;29.50;;;;;20.53;68.50;100890.56;4941565;28;45462;-52
2022/06/04 08:14:42;;;;;;;;;28.80;28.80;;;;;;;;4955277;28;45374;-55
2022/06/04 08:17:08;;;;;;;;;32.75;31.75;;;;;20.65;68.25;100881.97;4951239;28;45686;-54
2022/06/04 08:19:33;;;;;;;;;29.50;27.50;;;;;20.58;67.63;100868.28;4986088;28;46310;-51
2022/06/04 08:21:59;;;;;;;;;29.25;28.25;;;;;20.65;67.33;100877.22;4990931;28;45409;-54
2022/06/04 08:24:25;;;;;;;;;34.50;32.75;;;;;20.90;67.16;100897.91;4970031;28;45388;-51
2022/06/04 08:26:58;;;;;;;;;30.25;28.75;;;;;20.98;66.92;100904.91;4986892;28;45626;-52
2022/06/04 08:29:24;;;;;;;;;30.40;28.20;;;;;20.93;66.39;100877.00;4980749;28;45526;-56
2022/06/04 08:31:49;;;;;;;;;39.00;32.25;;;;;21.16;66.62;100900.69;4981551;28;45498;-53
2022/06/04 08:34:15;;;;;;;;;37.75;33.75;;;;;21.20;66.37;100907.41;4957839;28;45466;-57
2022/06/04 08:36:41;;;;;;;;;31.25;30.25;;;;;21.28;65.93;100907.97;4940459;28;45466;-56
2022/06/04 08:39:07;;;;;;;;;30.60;27.20;;;;;21.24;65.58;100894.53;4974769;28;45999;-52
2022/06/04 08:41:54;;;;;;;;;33.75;30.00;;;;;21.33;65.48;100916.31;4973781;28;45692;-51
2022/06/04 08:44:21;;;;;;;;;37.20;34.20;;;;;21.32;65.45;100917.44;4973902;28;45507;-51
2022/06/04 08:47:06;;;;;;;;;30.00;28.80;;;;;21.25;65.36;100889.81;4975535;28;45430;-50
2022/06/04 08:49:33;;;;;;;;;32.00;29.60;;;;;21.19;65.15;100880.59;4973720;28;46205;-55
2022/06/04 08:52:00;;;;;;;;;32.20;30.20;;;;;21.39;64.70;100912.38;4939768;28;45492;-55
2022/06/04 09:00:03;;;;;;;;;33.60;29.80;;;;;21.42;64.22;100911.00;4945322;28;45444;-55
2022/06/04 09:02:45;;;;;;;;;30.00;26.40;;;;;21.53;64.03;100915.44;4957187;28;45349;-53
2022/06/04 09:05:23;;;;;;;;;34.00;31.60;;;;;21.67;64.03;100930.50;4958733;28;45866;-51
2022/06/04 09:07:49;;;;;;;;;38.20;30.20;;;;;21.68;63.26;100920.16;4963454;28;45740;-57
2022/06/04 09:10:25;;;;;;;;;31.80;29.60;;;;;21.75;63.36;100928.28;4941007;28;45466;-54
2022/06/04 09:13:09;;;;;;;;;34.80;32.20;;;;;21.79;63.35;100924.63;4925076;28;45751;-54
2022/06/04 09:15:37;;;;;;;;;34.00;31.40;;;;;21.89;63.43;100923.75;4943653;28;45734;-52
2022/06/04 09:18:25;;;;;;;;;32.60;30.80;;;;;21.91;62.61;100913.16;4917350;28;45557;-55
2022/06/04 09:20:55;;;;;;;;;26.20;25.20;;;;;22.01;62.32;100919.81;4917660;28;46703;-53
2022/06/04 09:23:36;;;;;;;;;27.80;26.40;;;;;22.16;61.96;100941.28;4942381;28;45746;-52
2022/06/04 09:26:13;;;;;;;;;28.20;28.20;;;;;22.18;61.49;100939.88;4969111;28;45481;-52
2022/06/04 09:28:42;;;;;;;;;19.60;19.60;;;;;22.21;60.89;100938.47;4958021;28;45449;-54
2022/06/04 09:31:13;;;;;;;;;24.60;23.20;;;;;22.12;60.94;100909.41;4974488;28;46237;-56
2022/06/04 09:33:53;;;;;;;;;19.80;19.00;;;;;22.36;60.61;100933.91;4956765;28;45443;-53
2022/06/04 09:36:19;;;;;;;;;27.60;24.20;;;;;22.43;60.34;100931.66;4942037;28;45539;-56
2022/06/04 09:39:02;;;;;;;;;24.40;22.80;;;;;22.41;60.44;100923.53;4930861;28;45560;-56
2022/06/04 09:41:29;;;;;;;;;21.60;19.80;;;;;22.50;60.08;100928.53;4935132;28;46306;-56
2022/06/04 09:44:25;;;;;;;;;24.40;23.60;;;;;22.51;60.32;100922.66;4932433;28;45495;-55
2022/06/04 09:47:16;;;;;;;;;18.00;16.00;;;;;22.61;59.37;100933.81;4924799;28;45713;-54
2022/06/04 09:49:49;;;;;;;;;25.40;23.00;;;;;22.67;59.42;100929.00;4932568;28;45432;-55
2022/06/04 09:52:21;;;;;;;;;23.80;22.80;;;;;22.70;58.90;100919.19;4934602;28;45580;-58
2022/06/04 09:54:55;;;;;;;;;22.40;19.60;;;;;22.77;58.65;100925.31;4933585;28;45541;-54
2022/06/04 09:57:25;;;;;;;;;18.80;18.80;;;;;22.82;58.47;100938.41;4932484;28;45485;-58
2022/06/04 09:59:55;;;;;;;;;22.00;19.20;;;;;22.66;58.11;100890.13;4918700;28;45756;-54
2022/06/04 10:02:21;;;;;;;;;19.80;19.40;;;;;22.82;57.97;100916.88;4911633;28;45822;-55
2022/06/04 10:04:58;;;;;;;;;17.50;16.00;;;;;23.01;58.09;100939.41;4915789;28;45508;-58
2022/06/04 10:07:35;;;;;;;;;16.40;15.40;;;;;23.06;57.80;100932.94;4943943;28;45757;-60
2022/06/04 10:10:34;;;;;;;;;20.40;19.60;;;;;23.11;57.66;100934.84;4937791;28;45993;-54
2022/06/04 10:15:53;;;;;;;;;18.20;17.00;;;;;23.07;57.28;100915.03;4964098;28;45582;-59
2022/06/04 10:18:22;;;;;;;;;17.25;15.75;;;;;23.05;56.77;100903.25;4953871;28;45564;-59
2022/06/04 10:21:18;;;;;;;;;26.60;24.20;;;;;23.32;56.26;100929.94;4953105;28;45396;-59
2022/06/04 10:23:45;;;;;;;;;18.20;18.20;;;;;23.37;56.36;100927.09;4943651;28;46349;-55
2022/06/04 10:26:32;;;;;;;;;22.80;16.00;;;;;23.47;56.02;100925.34;4952426;28;45869;-53
2022/06/04 10:29:13;;;;;;;;;16.20;16.00;;;;;23.48;56.23;100918.59;4952652;28;45521;-57
2022/06/04 10:32:16;;;;;;;;;13.40;13.40;;;;;23.54;55.85;100917.41;4953954;28;45593;-52
2022/06/04 10:35:28;;;;;;;;;13.20;11.80;;;;;23.52;55.99;100911.25;4953723;28;45635;-53
2022/06/04 10:38:06;;;;;;;;;12.80;11.40;;;;;23.62;55.12;100916.75;4950361;28;46678;-58
2022/06/04 10:40:50;;;;;;;;;16.00;15.40;;;;;23.64;55.19;100908.88;4956340;28;45555;-56
2022/06/04 10:43:25;;;;;;;;;12.20;12.00;;;;;23.78;55.13;100927.78;4957360;28;45746;-56
2022/06/04 10:46:19;;;;;;;;;17.40;14.60;;;;;23.69;55.19;100894.84;4973298;28;45581;-55
2022/06/04 10:49:17;;;;;;;;;13.40;13.40;;;;;23.94;54.40;100915.28;4957144;28;45705;-57
2022/06/04 10:51:48;;;;;;;;;18.80;16.20;;;;;23.84;54.32;100890.19;4938552;28;45801;-55
2022/06/04 10:54:13;;;;;;;;;16.20;15.60;;;;;23.90;54.40;100883.38;4973585;28;45890;-52
2022/06/04 10:56:47;;;;;;;;;17.25;13.25;;;;;24.12;53.90;100917.63;4973213;28;46016;-57
2022/06/04 10:59:32;;;;;;;;;16.60;15.00;;;;;24.16;53.25;100899.09;4956593;28;45488;-58
2022/06/04 11:02:04;;;;;;;;;13.60;13.60;;;;;24.25;53.99;100904.81;4973158;28;45420;-55
2022/06/04 11:04:59;;;;;;;;;14.40;14.40;;;;;24.32;53.21;100906.13;4973233;28;45741;-58
2022/06/04 11:07:52;;;;;;;;;15.80;14.00;;;;;24.36;52.90;100897.94;4982300;28;45837;-56
2022/06/04 11:10:22;;;;;;;;;16.00;16.00;;;;;24.50;53.09;100898.88;5005107;28;45482;-56
2022/06/04 11:12:59;;;;;;;;;15.00;14.20;;;;;24.41;53.56;100869.84;4979811;28;45578;-56
2022/06/04 11:15:40;;;;;;;;;11.60;11.60;;;;;24.49;52.83;100859.91;4981482;28;45564;-57
2022/06/04 11:18:15;;;;;;;;;16.00;15.40;;;;;24.74;52.23;100883.06;4939958;28;45472;-58
2022/06/04 11:20:58;;;;;;;;;13.40;13.40;;;;;24.74;51.68;100885.88;4939935;28;45755;-59
2022/06/04 11:23:35;;;;;;;;;14.00;13.60;;;;;24.83;51.71;100892.53;4940376;28;45691;-52
2022/06/04 11:26:28;;;;;;;;;16.60;15.60;;;;;24.90;52.38;100880.88;4957556;28;45438;-58
2022/06/04 11:28:54;;;;;;;;;14.40;14.40;;;;;24.82;51.02;100860.00;4954799;28;45593;-58
2022/06/04 11:31:29;;;;;;;;;14.75;14.75;;;;;25.02;51.71;100881.25;4951806;28;46058;-55
2022/06/04 11:34:12;;;;;;;;;14.20;12.80;;;;;25.09;51.85;100878.06;4953502;28;45520;-54
2022/06/04 11:37:00;;;;;;;;;11.40;11.40;;;;;25.16;51.59;100867.25;4952534;28;45548;-52
2022/06/04 11:39:48;;;;;;;;;14.00;13.60;;;;;25.16;51.26;100852.38;4924979;28;45985;-56
2022/06/04 11:42:20;;;;;;;;;12.60;11.60;;;;;25.38;51.30;100870.50;4972707;28;45506;-58